sensor_id;sensor_type;location;lat;lon;timestamp;P1;durP1;ratioP1;P2;durP2;ratioP2
11313;SDS011;5712;48.858;9.206;2022-07-01T00:01:27;1.63;;;1.00;;
11313;SDS011;5712;48.858;9.206;2022-07-01T00:03:53;1.97;;;1.43;;
11313;SDS011;5712;48.858;9.206;2022-07-01T00:06:20;2.13;;;1.00;;
11313;SDS011;5712;48.858;9.206;2022-07-01T00:08:47;1.47;;;0.87;;
11313;SDS011;5712;48.858;9.206;2022-07-01T00:11:14;1.90;;;1.20;;
11313;SDS011;5712;48.858;9.206;2022-07-01T00:13:40;2.20;;;1.10;;
11313;SDS011;5712;48.858;9.206;2022-07-01T00:16:07;1.80;;;1.10;;
11313;SDS011;5712;48.858;9.206;2022-07-01T00:18:35;1.73;;;1.10;;
11313;SDS011;5712;48.858;9.206;2022-07-01T00:21:01;1.37;;;1.10;;
11313;SDS011;5712;48.858;9.206;2022-07-01T00:23:28;1.20;;;1.10;;
11313;SDS011;5712;48.858;9.206;2022-07-01T00:25:56;1.40;;;1.00;;
11313;SDS011;5712;48.858;9.206;2022-07-01T00:28:22;1.00;;;0.90;;
11313;SDS011;5712;48.858;9.206;2022-07-01T00:30:49;1.73;;;1.10;;
11313;SDS011;5712;48.858;9.206;2022-07-01T00:33:15;1.80;;;0.90;;
11313;SDS011;5712;48.858;9.206;2022-07-01T00:35:43;1.27;;;0.90;;
11313;SDS011;5712;48.858;9.206;2022-07-01T00:38:10;2.50;;;1.00;;
11313;SDS011;5712;48.858;9.206;2022-07-01T00:40:36;0.90;;;0.90;;
11313;SDS011;5712;48.858;9.206;2022-07-01T00:43:03;0.70;;;0.70;;
11313;SDS011;5712;48.858;9.206;2022-07-01T00:45:30;2.93;;;0.90;;
11313;SDS011;5712;48.858;9.206;2022-07-01T00:47:56;0.87;;;0.70;;
11313;SDS011;5712;48.858;9.206;2022-07-01T00:50:23;1.30;;;0.80;;
11313;SDS011;5712;48.858;9.206;2022-07-01T00:52:51;3.07;;;1.03;;
11313;SDS011;5712;48.858;9.206;2022-07-01T00:55:18;2.00;;;1.03;;
11313;SDS011;5712;48.858;9.206;2022-07-01T00:57:44;1.17;;;0.80;;
11313;SDS011;5712;48.858;9.206;2022-07-01T01:00:12;0.97;;;0.87;;
11313;SDS011;5712;48.858;9.206;2022-07-01T01:02:41;2.17;;;0.90;;
11313;SDS011;5712;48.858;9.206;2022-07-01T01:05:08;2.30;;;0.83;;
11313;SDS011;5712;48.858;9.206;2022-07-01T01:07:35;0.80;;;0.80;;
11313;SDS011;5712;48.858;9.206;2022-07-01T01:10:04;1.00;;;0.90;;
11313;SDS011;5712;48.858;9.206;2022-07-01T01:12:31;3.00;;;0.93;;
11313;SDS011;5712;48.858;9.206;2022-07-01T01:14:59;2.20;;;0.90;;
11313;SDS011;5712;48.858;9.206;2022-07-01T01:17:26;1.17;;;0.90;;
11313;SDS011;5712;48.858;9.206;2022-07-01T01:19:53;1.37;;;0.70;;
11313;SDS011;5712;48.858;9.206;2022-07-01T01:22:21;1.50;;;0.90;;
11313;SDS011;5712;48.858;9.206;2022-07-01T01:24:47;1.07;;;0.80;;
11313;SDS011;5712;48.858;9.206;2022-07-01T01:27:14;2.80;;;1.00;;
11313;SDS011;5712;48.858;9.206;2022-07-01T01:29:42;1.40;;;1.30;;
11313;SDS011;5712;48.858;9.206;2022-07-01T01:32:10;0.90;;;0.70;;
11313;SDS011;5712;48.858;9.206;2022-07-01T01:34:37;0.70;;;0.70;;
11313;SDS011;5712;48.858;9.206;2022-07-01T01:37:05;1.13;;;0.93;;
11313;SDS011;5712;48.858;9.206;2022-07-01T01:39:33;1.00;;;0.80;;
11313;SDS011;5712;48.858;9.206;2022-07-01T01:42:02;1.43;;;0.80;;
11313;SDS011;5712;48.858;9.206;2022-07-01T01:44:29;1.67;;;0.73;;
11313;SDS011;5712;48.858;9.206;2022-07-01T01:46:56;1.93;;;1.00;;
11313;SDS011;5712;48.858;9.206;2022-07-01T01:49:22;0.80;;;0.80;;
11313;SDS011;5712;48.858;9.206;2022-07-01T01:51:49;0.90;;;0.90;;
11313;SDS011;5712;48.858;9.206;2022-07-01T01:54:15;1.13;;;1.00;;
11313;SDS011;5712;48.858;9.206;2022-07-01T01:56:43;4.10;;;0.90;;
11313;SDS011;5712;48.858;9.206;2022-07-01T01:59:09;1.80;;;0.80;;
11313;SDS011;5712;48.858;9.206;2022-07-01T02:01:37;0.80;;;0.80;;
11313;SDS011;5712;48.858;9.206;2022-07-01T02:04:04;1.00;;;0.87;;
11313;SDS011;5712;48.858;9.206;2022-07-01T02:06:31;1.33;;;1.00;;
11313;SDS011;5712;48.858;9.206;2022-07-01T02:08:57;1.17;;;0.80;;
11313;SDS011;5712;48.858;9.206;2022-07-01T02:11:24;1.27;;;0.90;;
11313;SDS011;5712;48.858;9.206;2022-07-01T02:13:51;1.77;;;1.10;;
11313;SDS011;5712;48.858;9.206;2022-07-01T02:16:18;1.93;;;0.90;;
11313;SDS011;5712;48.858;9.206;2022-07-01T02:18:44;1.10;;;1.00;;
11313;SDS011;5712;48.858;9.206;2022-07-01T02:21:11;1.40;;;1.00;;
11313;SDS011;5712;48.858;9.206;2022-07-01T02:23:37;1.30;;;1.20;;
11313;SDS011;5712;48.858;9.206;2022-07-01T02:26:04;2.13;;;1.30;;
11313;SDS011;5712;48.858;9.206;2022-07-01T02:28:31;2.53;;;1.00;;
11313;SDS011;5712;48.858;9.206;2022-07-01T02:30:59;1.20;;;1.10;;
11313;SDS011;5712;48.858;9.206;2022-07-01T02:33:27;1.73;;;0.90;;
11313;SDS011;5712;48.858;9.206;2022-07-01T02:35:54;1.33;;;0.97;;
11313;SDS011;5712;48.858;9.206;2022-07-01T02:38:21;1.30;;;1.20;;
11313;SDS011;5712;48.858;9.206;2022-07-01T02:40:47;1.63;;;1.17;;
11313;SDS011;5712;48.858;9.206;2022-07-01T02:43:14;2.10;;;1.00;;
11313;SDS011;5712;48.858;9.206;2022-07-01T02:45:41;1.40;;;1.20;;
11313;SDS011;5712;48.858;9.206;2022-07-01T02:48:09;1.47;;;1.10;;
11313;SDS011;5712;48.858;9.206;2022-07-01T02:50:36;1.87;;;1.33;;
11313;SDS011;5712;48.858;9.206;2022-07-01T02:53:02;2.30;;;1.13;;
11313;SDS011;5712;48.858;9.206;2022-07-01T02:55:29;1.40;;;1.17;;
11313;SDS011;5712;48.858;9.206;2022-07-01T02:57:56;0.90;;;0.90;;
11313;SDS011;5712;48.858;9.206;2022-07-01T03:00:23;2.17;;;0.87;;
11313;SDS011;5712;48.858;9.206;2022-07-01T03:02:50;1.40;;;1.00;;
11313;SDS011;5712;48.858;9.206;2022-07-01T03:05:18;1.03;;;0.90;;
11313;SDS011;5712;48.858;9.206;2022-07-01T03:07:45;2.13;;;0.90;;
11313;SDS011;5712;48.858;9.206;2022-07-01T03:10:12;1.20;;;1.10;;
11313;SDS011;5712;48.858;9.206;2022-07-01T03:12:38;0.87;;;0.70;;
11313;SDS011;5712;48.858;9.206;2022-07-01T03:15:06;0.97;;;0.97;;
11313;SDS011;5712;48.858;9.206;2022-07-01T03:17:34;1.67;;;1.00;;
11313;SDS011;5712;48.858;9.206;2022-07-01T03:20:02;1.57;;;0.97;;
11313;SDS011;5712;48.858;9.206;2022-07-01T03:22:31;1.43;;;0.80;;
11313;SDS011;5712;48.858;9.206;2022-07-01T03:24:58;1.23;;;1.03;;
11313;SDS011;5712;48.858;9.206;2022-07-01T03:27:26;0.80;;;0.80;;
11313;SDS011;5712;48.858;9.206;2022-07-01T03:29:53;0.90;;;0.87;;
11313;SDS011;5712;48.858;9.206;2022-07-01T03:32:19;1.30;;;1.20;;
11313;SDS011;5712;48.858;9.206;2022-07-01T03:34:47;3.33;;;1.07;;
11313;SDS011;5712;48.858;9.206;2022-07-01T03:37:15;1.30;;;1.20;;
11313;SDS011;5712;48.858;9.206;2022-07-01T03:39:44;1.00;;;1.00;;
11313;SDS011;5712;48.858;9.206;2022-07-01T03:42:11;2.30;;;1.10;;
11313;SDS011;5712;48.858;9.206;2022-07-01T03:44:37;1.07;;;0.97;;
11313;SDS011;5712;48.858;9.206;2022-07-01T03:47:05;2.57;;;1.10;;
11313;SDS011;5712;48.858;9.206;2022-07-01T03:49:32;1.80;;;1.23;;
11313;SDS011;5712;48.858;9.206;2022-07-01T03:51:58;2.00;;;1.40;;
11313;SDS011;5712;48.858;9.206;2022-07-01T03:54:25;2.47;;;1.30;;
11313;SDS011;5712;48.858;9.206;2022-07-01T03:56:59;1.70;;;1.30;;
11313;SDS011;5712;48.858;9.206;2022-07-01T03:59:27;2.20;;;1.20;;
11313;SDS011;5712;48.858;9.206;2022-07-01T04:01:54;1.27;;;1.17;;
11313;SDS011;5712;48.858;9.206;2022-07-01T04:04:22;2.23;;;1.20;;
11313;SDS011;5712;48.858;9.206;2022-07-01T04:06:49;1.37;;;1.17;;
11313;SDS011;5712;48.858;9.206;2022-07-01T04:09:17;1.30;;;1.20;;
11313;SDS011;5712;48.858;9.206;2022-07-01T04:11:45;1.30;;;1.20;;
11313;SDS011;5712;48.858;9.206;2022-07-01T04:14:15;3.30;;;1.17;;
11313;SDS011;5712;48.858;9.206;2022-07-01T04:16:42;1.67;;;1.57;;
11313;SDS011;5712;48.858;9.206;2022-07-01T04:19:10;2.83;;;2.00;;
11313;SDS011;5712;48.858;9.206;2022-07-01T04:21:37;2.87;;;1.70;;
11313;SDS011;5712;48.858;9.206;2022-07-01T04:24:21;2.20;;;1.50;;
11313;SDS011;5712;48.858;9.206;2022-07-01T04:26:49;2.00;;;1.80;;
11313;SDS011;5712;48.858;9.206;2022-07-01T04:29:18;1.97;;;1.80;;
11313;SDS011;5712;48.858;9.206;2022-07-01T04:31:45;1.70;;;1.60;;
11313;SDS011;5712;48.858;9.206;2022-07-01T04:34:11;2.07;;;1.90;;
11313;SDS011;5712;48.858;9.206;2022-07-01T04:36:38;2.00;;;1.80;;
11313;SDS011;5712;48.858;9.206;2022-07-01T04:39:05;2.10;;;1.90;;
11313;SDS011;5712;48.858;9.206;2022-07-01T04:41:32;1.90;;;1.63;;
11313;SDS011;5712;48.858;9.206;2022-07-01T04:44:18;2.10;;;1.90;;
11313;SDS011;5712;48.858;9.206;2022-07-01T04:46:45;2.77;;;1.97;;
11313;SDS011;5712;48.858;9.206;2022-07-01T04:49:11;2.67;;;1.70;;
11313;SDS011;5712;48.858;9.206;2022-07-01T04:51:38;2.33;;;2.00;;
11313;SDS011;5712;48.858;9.206;2022-07-01T04:54:05;2.53;;;2.10;;
11313;SDS011;5712;48.858;9.206;2022-07-01T04:56:33;2.43;;;2.23;;
11313;SDS011;5712;48.858;9.206;2022-07-01T04:59:00;2.37;;;2.17;;
11313;SDS011;5712;48.858;9.206;2022-07-01T05:01:28;2.53;;;2.27;;
11313;SDS011;5712;48.858;9.206;2022-07-01T05:03:55;3.63;;;2.20;;
11313;SDS011;5712;48.858;9.206;2022-07-01T05:06:22;2.87;;;2.47;;
11313;SDS011;5712;48.858;9.206;2022-07-01T05:08:49;2.87;;;2.20;;
11313;SDS011;5712;48.858;9.206;2022-07-01T05:11:16;2.40;;;2.20;;
11313;SDS011;5712;48.858;9.206;2022-07-01T05:13:42;2.23;;;2.03;;
11313;SDS011;5712;48.858;9.206;2022-07-01T05:16:09;3.83;;;2.40;;
11313;SDS011;5712;48.858;9.206;2022-07-01T05:18:37;2.87;;;2.20;;
11313;SDS011;5712;48.858;9.206;2022-07-01T05:21:21;3.33;;;2.83;;
11313;SDS011;5712;48.858;9.206;2022-07-01T05:24:06;2.50;;;2.30;;
11313;SDS011;5712;48.858;9.206;2022-07-01T05:26:33;2.53;;;2.27;;
11313;SDS011;5712;48.858;9.206;2022-07-01T05:29:00;2.90;;;2.43;;
11313;SDS011;5712;48.858;9.206;2022-07-01T05:31:26;4.77;;;2.57;;
11313;SDS011;5712;48.858;9.206;2022-07-01T05:33:54;2.87;;;2.40;;
11313;SDS011;5712;48.858;9.206;2022-07-01T05:36:21;3.20;;;2.30;;
11313;SDS011;5712;48.858;9.206;2022-07-01T05:38:47;3.33;;;2.50;;
11313;SDS011;5712;48.858;9.206;2022-07-01T05:41:14;4.57;;;2.77;;
11313;SDS011;5712;48.858;9.206;2022-07-01T05:43:40;3.10;;;2.57;;
11313;SDS011;5712;48.858;9.206;2022-07-01T05:46:07;4.70;;;2.60;;
11313;SDS011;5712;48.858;9.206;2022-07-01T05:48:33;4.23;;;2.10;;
11313;SDS011;5712;48.858;9.206;2022-07-01T05:51:01;2.77;;;2.20;;
11313;SDS011;5712;48.858;9.206;2022-07-01T05:53:28;3.80;;;2.10;;
11313;SDS011;5712;48.858;9.206;2022-07-01T05:55:55;4.07;;;2.37;;
11313;SDS011;5712;48.858;9.206;2022-07-01T05:58:21;3.17;;;1.90;;
11313;SDS011;5712;48.858;9.206;2022-07-01T06:00:48;3.27;;;2.10;;
11313;SDS011;5712;48.858;9.206;2022-07-01T06:03:15;3.03;;;2.57;;
11313;SDS011;5712;48.858;9.206;2022-07-01T06:05:42;2.57;;;2.27;;
11313;SDS011;5712;48.858;9.206;2022-07-01T06:08:10;2.97;;;2.00;;
11313;SDS011;5712;48.858;9.206;2022-07-01T06:10:36;2.17;;;1.73;;
11313;SDS011;5712;48.858;9.206;2022-07-01T06:13:04;2.30;;;2.00;;
11313;SDS011;5712;48.858;9.206;2022-07-01T06:15:31;2.50;;;2.10;;
11313;SDS011;5712;48.858;9.206;2022-07-01T06:17:58;2.37;;;2.10;;
11313;SDS011;5712;48.858;9.206;2022-07-01T06:20:24;3.03;;;2.07;;
11313;SDS011;5712;48.858;9.206;2022-07-01T06:22:51;3.63;;;2.30;;
11313;SDS011;5712;48.858;9.206;2022-07-01T06:25:19;3.57;;;2.27;;
11313;SDS011;5712;48.858;9.206;2022-07-01T06:27:46;3.93;;;2.10;;
11313;SDS011;5712;48.858;9.206;2022-07-01T06:30:12;2.90;;;1.90;;
11313;SDS011;5712;48.858;9.206;2022-07-01T06:32:39;2.10;;;1.60;;
11313;SDS011;5712;48.858;9.206;2022-07-01T06:35:06;2.30;;;2.10;;
11313;SDS011;5712;48.858;9.206;2022-07-01T06:37:33;2.77;;;1.70;;
11313;SDS011;5712;48.858;9.206;2022-07-01T06:40:01;1.73;;;1.50;;
11313;SDS011;5712;48.858;9.206;2022-07-01T06:42:29;2.37;;;1.77;;
11313;SDS011;5712;48.858;9.206;2022-07-01T06:44:56;3.40;;;1.80;;
11313;SDS011;5712;48.858;9.206;2022-07-01T06:47:22;2.00;;;1.80;;
11313;SDS011;5712;48.858;9.206;2022-07-01T06:49:49;2.00;;;1.60;;
11313;SDS011;5712;48.858;9.206;2022-07-01T06:52:16;2.50;;;1.60;;
11313;SDS011;5712;48.858;9.206;2022-07-01T06:54:42;2.73;;;2.10;;
11313;SDS011;5712;48.858;9.206;2022-07-01T06:57:09;2.67;;;1.70;;
11313;SDS011;5712;48.858;9.206;2022-07-01T06:59:37;1.90;;;1.60;;
11313;SDS011;5712;48.858;9.206;2022-07-01T07:02:03;3.90;;;2.20;;
11313;SDS011;5712;48.858;9.206;2022-07-01T07:04:32;2.60;;;2.33;;
11313;SDS011;5712;48.858;9.206;2022-07-01T07:06:59;2.00;;;1.80;;
11313;SDS011;5712;48.858;9.206;2022-07-01T07:09:25;3.37;;;2.00;;
11313;SDS011;5712;48.858;9.206;2022-07-01T07:11:52;2.97;;;2.30;;
11313;SDS011;5712;48.858;9.206;2022-07-01T07:14:20;2.20;;;2.00;;
11313;SDS011;5712;48.858;9.206;2022-07-01T07:16:47;2.60;;;2.07;;
11313;SDS011;5712;48.858;9.206;2022-07-01T07:19:16;2.80;;;2.33;;
11313;SDS011;5712;48.858;9.206;2022-07-01T07:21:43;2.20;;;2.00;;
11313;SDS011;5712;48.858;9.206;2022-07-01T07:24:09;3.67;;;2.20;;
11313;SDS011;5712;48.858;9.206;2022-07-01T07:26:36;2.17;;;1.97;;
11313;SDS011;5712;48.858;9.206;2022-07-01T07:29:02;2.63;;;1.80;;
11313;SDS011;5712;48.858;9.206;2022-07-01T07:31:29;2.07;;;1.87;;
11313;SDS011;5712;48.858;9.206;2022-07-01T07:33:57;2.73;;;1.90;;
11313;SDS011;5712;48.858;9.206;2022-07-01T07:36:23;2.90;;;1.70;;
11313;SDS011;5712;48.858;9.206;2022-07-01T07:38:50;2.73;;;1.80;;
11313;SDS011;5712;48.858;9.206;2022-07-01T07:41:16;2.27;;;2.07;;
11313;SDS011;5712;48.858;9.206;2022-07-01T07:43:43;2.30;;;1.77;;
11313;SDS011;5712;48.858;9.206;2022-07-01T07:46:09;4.00;;;2.10;;
11313;SDS011;5712;48.858;9.206;2022-07-01T07:48:36;3.90;;;2.60;;
11313;SDS011;5712;48.858;9.206;2022-07-01T07:51:04;2.23;;;2.03;;
11313;SDS011;5712;48.858;9.206;2022-07-01T07:53:30;2.57;;;2.10;;
11313;SDS011;5712;48.858;9.206;2022-07-01T07:55:57;3.53;;;2.30;;
11313;SDS011;5712;48.858;9.206;2022-07-01T07:58:23;2.30;;;2.10;;
11313;SDS011;5712;48.858;9.206;2022-07-01T08:00:50;2.73;;;2.20;;
11313;SDS011;5712;48.858;9.206;2022-07-01T08:03:16;2.73;;;2.43;;
11313;SDS011;5712;48.858;9.206;2022-07-01T08:05:43;2.20;;;2.00;;
11313;SDS011;5712;48.858;9.206;2022-07-01T08:08:11;2.23;;;2.00;;
11313;SDS011;5712;48.858;9.206;2022-07-01T08:10:37;2.93;;;2.43;;
11313;SDS011;5712;48.858;9.206;2022-07-01T08:13:04;3.73;;;2.70;;
11313;SDS011;5712;48.858;9.206;2022-07-01T08:15:31;2.93;;;2.43;;
11313;SDS011;5712;48.858;9.206;2022-07-01T08:17:58;2.37;;;2.17;;
11313;SDS011;5712;48.858;9.206;2022-07-01T08:20:24;2.83;;;2.53;;
11313;SDS011;5712;48.858;9.206;2022-07-01T08:22:51;3.00;;;2.50;;
11313;SDS011;5712;48.858;9.206;2022-07-01T08:25:19;3.77;;;2.60;;
11313;SDS011;5712;48.858;9.206;2022-07-01T08:27:45;2.27;;;2.07;;
11313;SDS011;5712;48.858;9.206;2022-07-01T08:30:12;2.67;;;2.47;;
11313;SDS011;5712;48.858;9.206;2022-07-01T08:32:38;2.70;;;2.50;;
11313;SDS011;5712;48.858;9.206;2022-07-01T08:35:05;2.80;;;2.53;;
11313;SDS011;5712;48.858;9.206;2022-07-01T08:37:32;3.07;;;2.50;;
11313;SDS011;5712;48.858;9.206;2022-07-01T08:39:59;4.07;;;3.30;;
11313;SDS011;5712;48.858;9.206;2022-07-01T08:42:27;4.07;;;2.90;;
11313;SDS011;5712;48.858;9.206;2022-07-01T08:44:53;4.13;;;3.00;;
11313;SDS011;5712;48.858;9.206;2022-07-01T08:47:20;3.93;;;3.20;;
11313;SDS011;5712;48.858;9.206;2022-07-01T08:49:46;3.80;;;3.00;;
11313;SDS011;5712;48.858;9.206;2022-07-01T08:52:13;3.37;;;3.07;;
11313;SDS011;5712;48.858;9.206;2022-07-01T08:54:39;4.37;;;2.67;;
11313;SDS011;5712;48.858;9.206;2022-07-01T08:57:06;3.13;;;2.60;;
11313;SDS011;5712;48.858;9.206;2022-07-01T08:59:34;6.47;;;4.63;;
11313;SDS011;5712;48.858;9.206;2022-07-01T09:02:02;3.17;;;2.80;;
11313;SDS011;5712;48.858;9.206;2022-07-01T09:04:30;3.23;;;2.90;;
11313;SDS011;5712;48.858;9.206;2022-07-01T09:07:01;4.00;;;3.00;;
11313;SDS011;5712;48.858;9.206;2022-07-01T09:09:31;4.03;;;3.23;;
11313;SDS011;5712;48.858;9.206;2022-07-01T09:12:00;4.13;;;2.80;;
11313;SDS011;5712;48.858;9.206;2022-07-01T09:14:28;3.10;;;2.80;;
11313;SDS011;5712;48.858;9.206;2022-07-01T09:16:57;2.67;;;2.40;;
11313;SDS011;5712;48.858;9.206;2022-07-01T09:19:25;3.53;;;2.80;;
11313;SDS011;5712;48.858;9.206;2022-07-01T09:21:54;3.37;;;2.63;;
11313;SDS011;5712;48.858;9.206;2022-07-01T09:24:26;4.90;;;3.00;;
11313;SDS011;5712;48.858;9.206;2022-07-01T09:26:55;3.70;;;3.00;;
11313;SDS011;5712;48.858;9.206;2022-07-01T09:29:27;2.47;;;2.23;;
11313;SDS011;5712;48.858;9.206;2022-07-01T09:31:57;2.30;;;1.97;;
11313;SDS011;5712;48.858;9.206;2022-07-01T09:34:24;2.23;;;2.03;;
11313;SDS011;5712;48.858;9.206;2022-07-01T09:36:51;2.63;;;2.00;;
11313;SDS011;5712;48.858;9.206;2022-07-01T09:39:19;2.77;;;2.30;;
11313;SDS011;5712;48.858;9.206;2022-07-01T09:41:46;2.57;;;2.37;;
11313;SDS011;5712;48.858;9.206;2022-07-01T09:44:12;2.27;;;2.07;;
11313;SDS011;5712;48.858;9.206;2022-07-01T09:46:50;2.20;;;2.00;;
11313;SDS011;5712;48.858;9.206;2022-07-01T09:49:19;2.70;;;2.13;;
11313;SDS011;5712;48.858;9.206;2022-07-01T09:51:45;4.00;;;2.17;;
11313;SDS011;5712;48.858;9.206;2022-07-01T09:54:14;2.40;;;2.17;;
11313;SDS011;5712;48.858;9.206;2022-07-01T09:56:41;2.47;;;2.20;;
11313;SDS011;5712;48.858;9.206;2022-07-01T09:59:07;2.63;;;2.43;;
11313;SDS011;5712;48.858;9.206;2022-07-01T10:01:34;2.60;;;2.30;;
11313;SDS011;5712;48.858;9.206;2022-07-01T10:04:04;2.50;;;2.30;;
11313;SDS011;5712;48.858;9.206;2022-07-01T10:06:55;2.23;;;2.03;;
11313;SDS011;5712;48.858;9.206;2022-07-01T10:09:42;2.47;;;1.77;;
11313;SDS011;5712;48.858;9.206;2022-07-01T10:12:34;3.43;;;1.93;;
11313;SDS011;5712;48.858;9.206;2022-07-01T10:15:04;2.80;;;1.70;;
11313;SDS011;5712;48.858;9.206;2022-07-01T10:17:34;2.07;;;1.77;;
11313;SDS011;5712;48.858;9.206;2022-07-01T10:20:12;3.73;;;2.40;;
11313;SDS011;5712;48.858;9.206;2022-07-01T10:22:42;1.70;;;1.60;;
11313;SDS011;5712;48.858;9.206;2022-07-01T10:28:17;2.67;;;1.60;;
11313;SDS011;5712;48.858;9.206;2022-07-01T10:30:52;2.13;;;1.40;;
11313;SDS011;5712;48.858;9.206;2022-07-01T10:33:30;2.83;;;1.50;;
11313;SDS011;5712;48.858;9.206;2022-07-01T10:36:07;2.47;;;1.40;;
11313;SDS011;5712;48.858;9.206;2022-07-01T10:41:40;1.43;;;1.23;;
11313;SDS011;5712;48.858;9.206;2022-07-01T10:44:08;1.53;;;1.40;;
11313;SDS011;5712;48.858;9.206;2022-07-01T10:46:40;1.73;;;1.37;;
11313;SDS011;5712;48.858;9.206;2022-07-01T10:49:10;1.77;;;1.30;;
11313;SDS011;5712;48.858;9.206;2022-07-01T10:57:18;1.20;;;1.10;;
11313;SDS011;5712;48.858;9.206;2022-07-01T10:59:48;2.27;;;1.27;;
11313;SDS011;5712;48.858;9.206;2022-07-01T11:02:15;1.23;;;1.07;;
11313;SDS011;5712;48.858;9.206;2022-07-01T11:04:44;1.10;;;1.00;;
11313;SDS011;5712;48.858;9.206;2022-07-01T11:07:11;1.30;;;1.20;;
11313;SDS011;5712;48.858;9.206;2022-07-01T11:09:37;1.53;;;1.43;;
11313;SDS011;5712;48.858;9.206;2022-07-01T11:12:06;2.07;;;1.20;;
11313;SDS011;5712;48.858;9.206;2022-07-01T11:14:34;1.50;;;1.40;;
11313;SDS011;5712;48.858;9.206;2022-07-01T11:17:01;1.40;;;1.20;;
11313;SDS011;5712;48.858;9.206;2022-07-01T11:19:28;2.50;;;1.30;;
11313;SDS011;5712;48.858;9.206;2022-07-01T11:21:55;1.50;;;1.00;;
11313;SDS011;5712;48.858;9.206;2022-07-01T11:24:22;1.23;;;1.00;;
11313;SDS011;5712;48.858;9.206;2022-07-01T11:26:49;1.77;;;1.20;;
11313;SDS011;5712;48.858;9.206;2022-07-01T11:29:25;1.20;;;1.17;;
11313;SDS011;5712;48.858;9.206;2022-07-01T11:31:53;1.07;;;0.97;;
11313;SDS011;5712;48.858;9.206;2022-07-01T11:34:20;1.73;;;1.10;;
11313;SDS011;5712;48.858;9.206;2022-07-01T11:36:47;1.90;;;1.30;;
11313;SDS011;5712;48.858;9.206;2022-07-01T11:39:32;2.60;;;1.30;;
11313;SDS011;5712;48.858;9.206;2022-07-01T11:42:01;1.10;;;1.00;;
11313;SDS011;5712;48.858;9.206;2022-07-01T11:47:02;1.50;;;1.30;;
11313;SDS011;5712;48.858;9.206;2022-07-01T11:49:29;1.60;;;1.30;;
11313;SDS011;5712;48.858;9.206;2022-07-01T11:51:56;1.10;;;1.00;;
11313;SDS011;5712;48.858;9.206;2022-07-01T11:54:24;1.00;;;0.97;;
11313;SDS011;5712;48.858;9.206;2022-07-01T11:56:51;1.57;;;1.00;;
11313;SDS011;5712;48.858;9.206;2022-07-01T11:59:18;1.50;;;1.17;;
11313;SDS011;5712;48.858;9.206;2022-07-01T12:01:52;2.27;;;1.20;;
11313;SDS011;5712;48.858;9.206;2022-07-01T12:04:19;1.17;;;1.07;;
11313;SDS011;5712;48.858;9.206;2022-07-01T12:06:47;1.97;;;1.10;;
11313;SDS011;5712;48.858;9.206;2022-07-01T12:09:13;1.20;;;1.10;;
11313;SDS011;5712;48.858;9.206;2022-07-01T12:11:43;1.77;;;1.40;;
11313;SDS011;5712;48.858;9.206;2022-07-01T12:14:11;1.10;;;1.00;;
11313;SDS011;5712;48.858;9.206;2022-07-01T12:16:44;1.60;;;1.27;;
11313;SDS011;5712;48.858;9.206;2022-07-01T12:19:13;1.43;;;1.33;;
11313;SDS011;5712;48.858;9.206;2022-07-01T12:21:50;1.50;;;1.30;;
11313;SDS011;5712;48.858;9.206;2022-07-01T12:24:18;1.47;;;1.10;;
11313;SDS011;5712;48.858;9.206;2022-07-01T12:26:48;2.10;;;1.30;;
11313;SDS011;5712;48.858;9.206;2022-07-01T12:29:16;1.43;;;1.00;;
11313;SDS011;5712;48.858;9.206;2022-07-01T12:31:44;1.23;;;1.00;;
11313;SDS011;5712;48.858;9.206;2022-07-01T12:34:22;2.07;;;1.30;;
11313;SDS011;5712;48.858;9.206;2022-07-01T12:36:49;1.23;;;1.13;;
11313;SDS011;5712;48.858;9.206;2022-07-01T12:39:16;1.23;;;1.03;;
11313;SDS011;5712;48.858;9.206;2022-07-01T12:41:48;2.00;;;1.10;;
11313;SDS011;5712;48.858;9.206;2022-07-01T12:44:20;1.20;;;1.10;;
11313;SDS011;5712;48.858;9.206;2022-07-01T12:46:47;1.40;;;1.30;;
11313;SDS011;5712;48.858;9.206;2022-07-01T12:49:17;1.33;;;1.23;;
11313;SDS011;5712;48.858;9.206;2022-07-01T12:51:47;1.17;;;1.07;;
11313;SDS011;5712;48.858;9.206;2022-07-01T12:54:27;2.87;;;1.20;;
11313;SDS011;5712;48.858;9.206;2022-07-01T12:56:55;1.20;;;1.10;;
11313;SDS011;5712;48.858;9.206;2022-07-01T12:59:22;1.33;;;0.90;;
11313;SDS011;5712;48.858;9.206;2022-07-01T13:01:48;1.13;;;1.00;;
11313;SDS011;5712;48.858;9.206;2022-07-01T13:04:23;1.40;;;1.17;;
11313;SDS011;5712;48.858;9.206;2022-07-01T13:06:51;1.80;;;1.20;;
11313;SDS011;5712;48.858;9.206;2022-07-01T13:09:18;1.17;;;1.07;;
11313;SDS011;5712;48.858;9.206;2022-07-01T13:11:44;1.30;;;1.20;;
11313;SDS011;5712;48.858;9.206;2022-07-01T13:14:11;1.60;;;1.00;;
11313;SDS011;5712;48.858;9.206;2022-07-01T13:16:38;3.27;;;1.40;;
11313;SDS011;5712;48.858;9.206;2022-07-01T13:19:05;1.30;;;1.00;;
11313;SDS011;5712;48.858;9.206;2022-07-01T13:21:31;1.33;;;1.23;;
11313;SDS011;5712;48.858;9.206;2022-07-01T13:23:59;1.53;;;1.20;;
11313;SDS011;5712;48.858;9.206;2022-07-01T13:26:26;1.37;;;1.10;;
11313;SDS011;5712;48.858;9.206;2022-07-01T13:28:53;1.10;;;1.00;;
11313;SDS011;5712;48.858;9.206;2022-07-01T13:31:19;1.57;;;1.40;;
11313;SDS011;5712;48.858;9.206;2022-07-01T13:33:46;1.40;;;1.10;;
11313;SDS011;5712;48.858;9.206;2022-07-01T13:36:12;1.57;;;1.47;;
11313;SDS011;5712;48.858;9.206;2022-07-01T13:38:41;1.30;;;1.20;;
11313;SDS011;5712;48.858;9.206;2022-07-01T13:41:10;1.30;;;1.20;;
11313;SDS011;5712;48.858;9.206;2022-07-01T13:43:36;1.33;;;1.10;;
11313;SDS011;5712;48.858;9.206;2022-07-01T13:46:03;1.60;;;1.50;;
11313;SDS011;5712;48.858;9.206;2022-07-01T13:48:29;1.30;;;1.03;;
11313;SDS011;5712;48.858;9.206;2022-07-01T13:50:56;1.00;;;1.00;;
11313;SDS011;5712;48.858;9.206;2022-07-01T13:53:23;2.13;;;1.20;;
11313;SDS011;5712;48.858;9.206;2022-07-01T13:55:49;1.30;;;1.10;;
11313;SDS011;5712;48.858;9.206;2022-07-01T13:58:17;1.57;;;1.20;;
11313;SDS011;5712;48.858;9.206;2022-07-01T14:00:44;1.40;;;1.10;;
11313;SDS011;5712;48.858;9.206;2022-07-01T14:03:10;1.73;;;1.40;;
11313;SDS011;5712;48.858;9.206;2022-07-01T14:05:37;5.50;;;1.70;;
11313;SDS011;5712;48.858;9.206;2022-07-01T14:08:04;1.83;;;1.60;;
11313;SDS011;5712;48.858;9.206;2022-07-01T14:10:30;3.20;;;1.63;;
11313;SDS011;5712;48.858;9.206;2022-07-01T14:12:58;1.93;;;1.40;;
11313;SDS011;5712;48.858;9.206;2022-07-01T14:15:26;1.93;;;1.60;;
11313;SDS011;5712;48.858;9.206;2022-07-01T14:17:52;1.77;;;1.63;;
11313;SDS011;5712;48.858;9.206;2022-07-01T14:20:19;2.13;;;1.60;;
11313;SDS011;5712;48.858;9.206;2022-07-01T14:22:46;1.80;;;1.60;;
11313;SDS011;5712;48.858;9.206;2022-07-01T14:25:12;1.93;;;1.50;;
11313;SDS011;5712;48.858;9.206;2022-07-01T14:27:39;3.07;;;1.73;;
11313;SDS011;5712;48.858;9.206;2022-07-01T14:30:06;2.60;;;1.67;;
11313;SDS011;5712;48.858;9.206;2022-07-01T14:32:35;1.47;;;1.37;;
11313;SDS011;5712;48.858;9.206;2022-07-01T14:35:03;2.67;;;1.80;;
11313;SDS011;5712;48.858;9.206;2022-07-01T14:37:30;1.80;;;1.30;;
11313;SDS011;5712;48.858;9.206;2022-07-01T14:39:57;1.57;;;1.47;;
11313;SDS011;5712;48.858;9.206;2022-07-01T14:42:24;1.60;;;1.50;;
11313;SDS011;5712;48.858;9.206;2022-07-01T14:44:51;3.07;;;1.73;;
11313;SDS011;5712;48.858;9.206;2022-07-01T14:47:18;2.07;;;1.57;;
11313;SDS011;5712;48.858;9.206;2022-07-01T14:49:46;2.00;;;1.33;;
11313;SDS011;5712;48.858;9.206;2022-07-01T14:52:14;1.60;;;1.50;;
11313;SDS011;5712;48.858;9.206;2022-07-01T14:54:42;2.57;;;1.70;;
11313;SDS011;5712;48.858;9.206;2022-07-01T14:57:09;2.30;;;1.63;;
11313;SDS011;5712;48.858;9.206;2022-07-01T14:59:35;1.50;;;1.40;;
11313;SDS011;5712;48.858;9.206;2022-07-01T15:02:02;1.67;;;1.50;;
11313;SDS011;5712;48.858;9.206;2022-07-01T15:04:30;1.50;;;1.40;;
11313;SDS011;5712;48.858;9.206;2022-07-01T15:06:58;1.70;;;1.27;;
11313;SDS011;5712;48.858;9.206;2022-07-01T15:09:25;1.30;;;1.20;;
11313;SDS011;5712;48.858;9.206;2022-07-01T15:11:52;1.40;;;1.30;;
11313;SDS011;5712;48.858;9.206;2022-07-01T15:14:20;1.57;;;1.20;;
11313;SDS011;5712;48.858;9.206;2022-07-01T15:16:46;1.80;;;1.23;;
11313;SDS011;5712;48.858;9.206;2022-07-01T15:19:13;2.23;;;1.77;;